Time,TemperatureF,DewpointF,PressureIn,WindDirection,WindDirectionDegrees,WindSpeedMPH,WindSpeedGustMPH,Humidity,HourlyPrecipIn,Conditions,Clouds,dailyrainin,SoftwareType,DateUTC
2013-05-05 00:01:00,67.6,57.5,29.97,SSW,193,6.0,8.0,70,0.00,,---,0.00,VWS V14.01,2013-05-05 05:01:00,
2013-05-05 00:06:00,67.5,57.4,29.97,SSE,159,5.0,10.0,70,0.00,,---,0.00,VWS V14.01,2013-05-05 05:06:00,
2013-05-05 00:11:00,67.5,57.4,29.97,South,176,4.0,12.0,70,0.00,,---,0.00,VWS V14.01,2013-05-05 05:11:00,
2013-05-05 00:16:00,67.5,57.4,29.97,SSE,152,6.0,12.0,70,0.00,,---,0.00,VWS V14.01,2013-05-05 05:16:00,
2013-05-05 00:21:00,67.5,57.4,29.97,SSE,148,5.0,12.0,70,0.00,,---,0.00,VWS V14.01,2013-05-05 05:21:00,
2013-05-05 00:26:00,67.5,57.4,29.97,SSW,194,7.0,12.0,70,0.00,,---,0.00,VWS V14.01,2013-05-05 05:26:00,
2013-05-05 00:31:00,67.6,58.3,29.97,SSE,149,4.0,12.0,72,0.00,,---,0.00,VWS V14.01,2013-05-05 05:31:00,
2013-05-05 00:36:00,67.5,57.8,29.97,South,190,6.0,12.0,71,0.00,,---,0.00,VWS V14.01,2013-05-05 05:36:00,
2013-05-05 00:41:00,67.5,57.8,29.97,SSW,198,4.0,12.0,71,0.00,,---,0.00,VWS V14.01,2013-05-05 05:41:00,
2013-05-05 00:46:00,67.5,57.8,29.97,South,184,4.0,12.0,71,0.00,,---,0.00,VWS V14.01,2013-05-05 05:46:00,
2013-05-05 00:51:00,67.4,58.1,29.97,SSE,157,6.0,12.0,72,0.00,,---,0.00,VWS V14.01,2013-05-05 05:51:00,
2013-05-05 00:56:00,67.4,58.1,29.97,SSW,212,5.0,12.0,72,0.00,,---,0.00,VWS V14.01,2013-05-05 05:56:00,
2013-05-05 01:01:00,67.3,58.4,29.97,SSW,193,6.0,6.0,73,0.00,,---,0.00,VWS V14.01,2013-05-05 06:01:00,
2013-05-05 01:06:00,67.3,58.4,29.97,SE,142,6.0,10.0,73,0.00,,---,0.00,VWS V14.01,2013-05-05 06:06:00,
2013-05-05 01:11:00,67.3,58.7,29.97,SSW,197,2.0,11.0,74,0.00,,---,0.00,VWS V14.01,2013-05-05 06:11:00,
2013-05-05 01:16:00,67.2,58.6,29.97,SSW,201,6.0,11.0,74,0.00,,---,0.00,VWS V14.01,2013-05-05 06:16:00,
2013-05-05 01:21:00,67.2,58.6,29.97,SSW,212,3.0,14.0,74,0.00,,---,0.00,VWS V14.01,2013-05-05 06:21:00,
2013-05-05 01:26:00,67.1,58.5,29.97,West,269,3.0,14.0,74,0.00,,---,0.00,VWS V14.01,2013-05-05 06:26:00,
2013-05-05 01:31:00,67.1,58.5,29.97,SW,218,4.0,14.0,74,0.00,,---,0.00,VWS V14.01,2013-05-05 06:31:00,
2013-05-05 01:36:00,67.1,58.5,29.97,West,271,4.0,14.0,74,0.00,,---,0.00,VWS V14.01,2013-05-05 06:36:00,
2013-05-05 01:41:00,67.2,58.3,29.97,SSW,212,3.0,14.0,73,0.00,,---,0.00,VWS V14.01,2013-05-05 06:41:00,
2013-05-05 01:46:00,67.3,58.4,29.97,SSE,149,7.0,14.0,73,0.00,,---,0.00,VWS V14.01,2013-05-05 06:46:00,
2013-05-05 01:51:00,67.4,58.8,29.97,SSW,196,1.0,14.0,74,0.00,,---,0.00,VWS V14.01,2013-05-05 06:51:00,
2013-05-05 01:56:00,67.3,59.1,29.96,SSW,208,4.0,14.0,75,0.00,,---,0.00,VWS V14.01,2013-05-05 06:56:00,
2013-05-05 02:01:00,67.3,59.1,29.96,SSE,162,3.0,9.0,75,0.00,,---,0.00,VWS V14.01,2013-05-05 07:01:00,
2013-05-05 02:06:00,67.3,59.1,29.96,SSW,213,5.0,11.0,75,0.00,,---,0.00,VWS V14.01,2013-05-05 07:06:00,
2013-05-05 02:11:00,67.3,59.1,29.96,SW,225,11.0,11.0,75,0.00,,---,0.00,VWS V14.01,2013-05-05 07:11:00,
2013-05-05 02:16:00,67.3,58.7,29.96,South,172,4.0,11.0,74,0.00,,---,0.00,VWS V14.01,2013-05-05 07:16:00,
2013-05-05 02:21:00,67.3,59.1,29.96,SSW,198,8.0,11.0,75,0.00,,---,0.00,VWS V14.01,2013-05-05 07:21:00,
2013-05-05 02:26:00,67.3,59.5,29.96,SSE,160,3.0,11.0,76,0.00,,---,0.00,VWS V14.01,2013-05-05 07:26:00,
2013-05-05 02:31:00,67.2,59.4,29.96,SSW,211,8.0,11.0,76,0.00,,---,0.00,VWS V14.01,2013-05-05 07:31:00,
2013-05-05 02:36:00,67.2,59.4,29.96,WSW,239,6.0,11.0,76,0.00,,---,0.00,VWS V14.01,2013-05-05 07:36:00,
2013-05-05 02:41:00,67.2,59.4,29.95,South,188,3.0,11.0,76,0.00,,---,0.00,VWS V14.01,2013-05-05 07:41:00,
2013-05-05 02:46:00,67.2,59.4,29.95,SSW,198,6.0,11.0,76,0.00,,---,0.00,VWS V14.01,2013-05-05 07:46:00,
2013-05-05 02:51:00,67.1,59.3,29.95,South,176,3.0,11.0,76,0.00,,---,0.00,VWS V14.01,2013-05-05 07:51:00,
2013-05-05 02:56:00,67.1,59.7,29.95,SW,231,4.0,11.0,77,0.00,,---,0.00,VWS V14.01,2013-05-05 07:56:00,
2013-05-05 03:01:00,67.0,59.6,29.95,South,172,3.0,7.0,77,0.00,,---,0.00,VWS V14.01,2013-05-05 08:01:00,
2013-05-05 03:06:00,67.0,59.6,29.95,South,173,4.0,8.0,77,0.00,,---,0.00,VWS V14.01,2013-05-05 08:06:00,
2013-05-05 03:11:00,67.0,59.6,29.95,SSW,198,6.0,10.0,77,0.00,,---,0.00,VWS V14.01,2013-05-05 08:11:00,
2013-05-05 03:16:00,67.0,59.9,29.95,SSW,211,8.0,12.0,78,0.00,,---,0.00,VWS V14.01,2013-05-05 08:16:00,
2013-05-05 03:21:00,67.0,59.9,29.95,South,188,5.0,12.0,78,0.00,,---,0.00,VWS V14.01,2013-05-05 08:21:00,
2013-05-05 03:26:00,66.9,59.8,29.95,WNW,300,3.0,12.0,78,0.00,,---,0.00,VWS V14.01,2013-05-05 08:26:00,
2013-05-05 03:31:00,66.8,59.7,29.95,West,260,0.0,12.0,78,0.00,,---,0.00,VWS V14.01,2013-05-05 08:31:00,
2013-05-05 03:36:00,66.8,59.7,29.95,SSW,201,5.0,12.0,78,0.00,,---,0.00,VWS V14.01,2013-05-05 08:36:00,
2013-05-05 03:41:00,66.7,60.0,29.95,SE,145,4.0,12.0,79,0.00,,---,0.00,VWS V14.01,2013-05-05 08:41:00,
2013-05-05 03:46:00,66.7,60.0,29.95,SW,224,3.0,12.0,79,0.00,,---,0.00,VWS V14.01,2013-05-05 08:46:00,
2013-05-05 03:51:00,66.7,60.0,29.95,SSW,203,2.0,12.0,79,0.00,,---,0.00,VWS V14.01,2013-05-05 08:51:00,
2013-05-05 03:56:00,66.7,60.3,29.95,SSW,211,4.0,12.0,80,0.00,,---,0.00,VWS V14.01,2013-05-05 08:56:00,
2013-05-05 04:01:00,66.6,60.2,29.95,South,180,2.0,6.0,80,0.00,,---,0.00,VWS V14.01,2013-05-05 09:01:00,
2013-05-05 04:06:00,66.6,60.2,29.95,SSW,196,3.0,9.0,80,0.00,,---,0.00,VWS V14.01,2013-05-05 09:06:00,
2013-05-05 04:11:00,66.6,60.6,29.96,SSE,148,7.0,9.0,81,0.00,,---,0.00,VWS V14.01,2013-05-05 09:11:00,
2013-05-05 04:16:00,66.5,60.5,29.96,SW,221,3.0,9.0,81,0.00,,---,0.00,VWS V14.01,2013-05-05 09:16:00,
2013-05-05 04:21:00,66.5,60.5,29.96,WSW,245,1.0,9.0,81,0.00,,---,0.00,VWS V14.01,2013-05-05 09:21:00,
2013-05-05 04:26:00,66.5,60.5,29.96,West,270,2.0,9.0,81,0.00,,---,0.00,VWS V14.01,2013-05-05 09:26:00,
2013-05-05 04:31:00,66.4,60.4,29.96,South,176,2.0,9.0,81,0.00,,---,0.00,VWS V14.01,2013-05-05 09:31:00,
2013-05-05 04:36:00,66.4,60.4,29.95,West,271,1.0,9.0,81,0.00,,---,0.00,VWS V14.01,2013-05-05 09:36:00,
2013-05-05 04:41:00,66.4,60.7,29.96,WSW,253,2.0,9.0,82,0.00,,---,0.00,VWS V14.01,2013-05-05 09:41:00,
2013-05-05 04:46:00,66.4,60.7,29.96,South,184,4.0,9.0,82,0.00,,---,0.00,VWS V14.01,2013-05-05 09:46:00,
2013-05-05 04:51:00,66.4,60.7,29.96,SW,217,2.0,9.0,82,0.00,,---,0.00,VWS V14.01,2013-05-05 09:51:00,
2013-05-05 04:56:00,66.4,60.7,29.96,WSW,239,5.0,9.0,82,0.00,,---,0.00,VWS V14.01,2013-05-05 09:56:00,
2013-05-05 05:01:00,66.2,60.5,29.96,WSW,237,3.0,4.0,82,0.00,,---,0.00,VWS V14.01,2013-05-05 10:01:00,
2013-05-05 05:06:00,66.2,60.9,29.96,SSW,211,3.0,6.0,83,0.00,,---,0.00,VWS V14.01,2013-05-05 10:06:00,
2013-05-05 05:11:00,66.2,60.9,29.97,West,269,2.0,6.0,83,0.00,,---,0.00,VWS V14.01,2013-05-05 10:11:00,
2013-05-05 05:16:00,66.1,60.8,29.97,WSW,243,2.0,7.0,83,0.00,,---,0.00,VWS V14.01,2013-05-05 10:16:00,
2013-05-05 05:21:00,65.9,60.6,29.98,WNW,295,3.0,7.0,83,0.00,,---,0.00,VWS V14.01,2013-05-05 10:21:00,
2013-05-05 05:26:00,65.4,60.1,29.98,NW,309,4.0,7.0,83,0.00,,---,0.00,VWS V14.01,2013-05-05 10:26:00,
2013-05-05 05:31:00,63.1,57.5,29.98,NNE,29,7.0,8.0,82,0.00,,---,0.00,VWS V14.01,2013-05-05 10:31:00,
2013-05-05 05:36:00,61.6,57.4,29.99,NNW,335,2.0,8.0,86,0.00,,---,0.00,VWS V14.01,2013-05-05 10:36:00,
2013-05-05 05:41:00,61.3,57.7,29.99,NNE,15,4.0,8.0,88,0.00,,---,0.00,VWS V14.01,2013-05-05 10:41:00,
2013-05-05 05:46:00,61.1,57.8,29.99,NW,323,2.0,8.0,89,0.00,,---,0.00,VWS V14.01,2013-05-05 10:46:00,
2013-05-05 05:51:00,60.9,58.0,30.00,North,11,4.0,8.0,90,0.00,,---,0.00,VWS V14.01,2013-05-05 10:51:00,
2013-05-05 05:56:00,60.8,57.8,30.00,NNW,335,2.0,8.0,90,0.00,,---,0.00,VWS V14.01,2013-05-05 10:56:00,
2013-05-05 06:01:00,60.5,57.6,30.00,North,9,2.0,4.0,90,0.00,,---,0.00,VWS V14.01,2013-05-05 11:01:00,
2013-05-05 06:06:00,60.3,57.7,30.00,NW,325,3.0,9.0,91,0.00,,---,0.00,VWS V14.01,2013-05-05 11:06:00,
2013-05-05 06:11:00,60.0,57.4,30.01,NW,318,3.0,9.0,91,0.00,,---,0.00,VWS V14.01,2013-05-05 11:11:00,
2013-05-05 06:16:00,59.7,57.1,30.01,NW,321,3.0,9.0,91,0.00,,---,0.00,VWS V14.01,2013-05-05 11:16:00,
2013-05-05 06:21:00,59.5,56.9,30.01,NW,316,3.0,9.0,91,0.00,,---,0.00,VWS V14.01,2013-05-05 11:21:00,
2013-05-05 06:26:00,59.3,56.7,30.01,NW,323,5.0,9.0,91,0.00,,---,0.00,VWS V14.01,2013-05-05 11:26:00,
2013-05-05 06:31:00,59.1,56.5,30.01,NW,322,2.0,9.0,91,0.00,,---,0.00,VWS V14.01,2013-05-05 11:31:00,
2013-05-05 06:36:00,58.9,56.3,30.01,NNW,336,3.0,9.0,91,0.00,,---,0.00,VWS V14.01,2013-05-05 11:36:00,
2013-05-05 06:41:00,58.8,56.2,30.02,NNW,335,3.0,9.0,91,0.00,,---,0.00,VWS V14.01,2013-05-05 11:41:00,
2013-05-05 06:46:00,58.7,56.1,30.02,NNW,342,1.0,9.0,91,0.00,,---,0.00,VWS V14.01,2013-05-05 11:46:00,
2013-05-05 06:51:00,58.8,56.2,30.02,NNW,347,4.0,9.0,91,0.00,,---,0.00,VWS V14.01,2013-05-05 11:51:00,
2013-05-05 06:56:00,58.8,56.2,30.02,NW,323,1.0,9.0,91,0.00,,---,0.00,VWS V14.01,2013-05-05 11:56:00,
2013-05-05 07:01:00,59.0,56.4,30.02,NW,326,2.0,4.0,91,0.00,,---,0.00,VWS V14.01,2013-05-05 12:01:00,
2013-05-05 07:06:00,59.2,56.6,30.03,NNW,327,2.0,5.0,91,0.00,,---,0.00,VWS V14.01,2013-05-05 12:06:00,
2013-05-05 07:11:00,59.5,56.6,30.03,NW,309,2.0,5.0,90,0.00,,---,0.00,VWS V14.01,2013-05-05 12:11:00,
2013-05-05 07:16:00,59.7,56.8,30.03,NW,319,3.0,5.0,90,0.00,,---,0.00,VWS V14.01,2013-05-05 12:16:00,
2013-05-05 07:21:00,60.0,56.8,30.04,NNW,335,2.0,5.0,89,0.00,,---,0.00,VWS V14.01,2013-05-05 12:21:00,
2013-05-05 07:26:00,60.2,57.0,30.04,NW,318,3.0,5.0,89,0.00,,---,0.00,VWS V14.01,2013-05-05 12:26:00,
2013-05-05 07:31:00,60.5,57.2,30.04,NW,326,3.0,5.0,89,0.00,,---,0.00,VWS V14.01,2013-05-05 12:31:00,
2013-05-05 07:36:00,60.9,57.3,30.05,North,360,5.0,5.0,88,0.00,,---,0.00,VWS V14.01,2013-05-05 12:36:00,
2013-05-05 07:41:00,61.4,57.8,30.05,NNE,23,4.0,5.0,88,0.00,,---,0.00,VWS V14.01,2013-05-05 12:41:00,
2013-05-05 07:46:00,61.9,57.7,30.05,NNW,335,1.0,6.0,86,0.00,,---,0.00,VWS V14.01,2013-05-05 12:46:00,
2013-05-05 07:51:00,62.4,57.8,30.06,NW,325,3.0,7.0,85,0.00,,---,0.00,VWS V14.01,2013-05-05 12:51:00,
2013-05-05 07:56:00,62.8,57.9,30.06,NNE,21,2.0,8.0,84,0.00,,---,0.00,VWS V14.01,2013-05-05 12:56:00,
2013-05-05 08:01:00,63.2,58.0,30.06,NNW,332,2.0,7.0,83,0.00,,---,0.00,VWS V14.01,2013-05-05 13:01:00,
2013-05-05 08:06:00,63.6,57.7,30.06,NE,44,6.0,7.0,81,0.00,,---,0.00,VWS V14.01,2013-05-05 13:06:00,
2013-05-05 08:11:00,63.7,56.7,30.06,NNE,30,6.0,12.0,78,0.00,,---,0.00,VWS V14.01,2013-05-05 13:11:00,
2013-05-05 08:16:00,64.0,57.0,30.07,NNW,329,3.0,12.0,78,0.00,,---,0.00,VWS V14.01,2013-05-05 13:16:00,
2013-05-05 08:21:00,64.1,55.7,30.06,NW,312,6.0,14.0,74,0.00,,---,0.00,VWS V14.01,2013-05-05 13:21:00,
2013-05-05 08:26:00,64.2,55.8,30.07,NW,305,8.0,14.0,74,0.00,,---,0.00,VWS V14.01,2013-05-05 13:26:00,
2013-05-05 08:31:00,64.4,56.3,30.07,NNW,330,3.0,14.0,75,0.00,,---,0.00,VWS V14.01,2013-05-05 13:31:00,
2013-05-05 08:36:00,64.6,56.5,30.07,North,358,8.0,14.0,75,0.00,,---,0.00,VWS V14.01,2013-05-05 13:36:00,
2013-05-05 08:41:00,65.2,56.7,30.07,NW,313,6.0,14.0,74,0.00,,---,0.00,VWS V14.01,2013-05-05 13:41:00,
2013-05-05 08:46:00,65.7,56.8,30.07,North,349,3.0,14.0,73,0.00,,---,0.00,VWS V14.01,2013-05-05 13:46:00,
2013-05-05 08:51:00,66.2,57.3,30.07,NNW,338,6.0,14.0,73,0.00,,---,0.00,VWS V14.01,2013-05-05 13:51:00,
2013-05-05 08:56:00,66.6,56.9,30.07,NW,325,2.0,14.0,71,0.00,,---,0.00,VWS V14.01,2013-05-05 13:56:00,
2013-05-05 09:01:00,66.7,57.0,30.07,NW,315,7.0,9.0,71,0.00,,---,0.00,VWS V14.01,2013-05-05 14:01:00,
2013-05-05 09:06:00,67.0,57.3,30.07,NNW,336,3.0,13.0,71,0.00,,---,0.00,VWS V14.01,2013-05-05 14:06:00,
2013-05-05 09:11:00,67.1,56.2,30.07,West,269,10.0,13.0,68,0.00,,---,0.00,VWS V14.01,2013-05-05 14:11:00,
2013-05-05 09:16:00,67.1,56.2,30.08,NNW,332,5.0,13.0,68,0.00,,---,0.00,VWS V14.01,2013-05-05 14:16:00,
2013-05-05 09:21:00,67.3,56.4,30.08,WNW,288,2.0,13.0,68,0.00,,---,0.00,VWS V14.01,2013-05-05 14:21:00,
2013-05-05 09:26:00,67.6,55.8,30.08,NNW,337,7.0,13.0,66,0.00,,---,0.00,VWS V14.01,2013-05-05 14:26:00,
2013-05-05 09:31:00,67.3,55.6,30.08,NNW,330,4.0,13.0,66,0.00,,---,0.00,VWS V14.01,2013-05-05 14:31:00,
2013-05-05 09:36:00,67.3,56.0,30.08,North,353,7.0,13.0,67,0.00,,---,0.00,VWS V14.01,2013-05-05 14:36:00,
2013-05-05 09:41:00,67.3,55.2,30.08,NNE,15,10.0,13.0,65,0.00,,---,0.00,VWS V14.01,2013-05-05 14:41:00,
2013-05-05 09:46:00,66.8,54.2,30.08,NNW,340,3.0,13.0,64,0.00,,---,0.00,VWS V14.01,2013-05-05 14:46:00,
2013-05-05 09:51:00,66.7,54.2,30.09,NNW,334,3.0,15.0,64,0.00,,---,0.00,VWS V14.01,2013-05-05 14:51:00,
2013-05-05 09:56:00,66.8,52.9,30.09,NE,44,8.0,15.0,61,0.00,,---,0.00,VWS V14.01,2013-05-05 14:56:00,
2013-05-05 10:01:00,67.1,53.2,30.09,NNW,340,6.0,6.0,61,0.00,,---,0.00,VWS V14.01,2013-05-05 15:01:00,
2013-05-05 10:06:00,67.7,54.2,30.09,North,359,6.0,10.0,62,0.00,,---,0.00,VWS V14.01,2013-05-05 15:06:00,
2013-05-05 10:11:00,67.6,54.6,30.09,NE,43,11.0,12.0,63,0.00,,---,0.00,VWS V14.01,2013-05-05 15:11:00,
2013-05-05 10:16:00,67.6,55.0,30.09,NNW,327,3.0,12.0,64,0.00,,---,0.00,VWS V14.01,2013-05-05 15:16:00,
2013-05-05 10:21:00,67.4,54.4,30.09,NNE,25,7.0,12.0,63,0.00,,---,0.00,VWS V14.01,2013-05-05 15:21:00,
2013-05-05 10:26:00,66.9,53.0,30.09,NNW,343,7.0,15.0,61,0.00,,---,0.00,VWS V14.01,2013-05-05 15:26:00,
2013-05-05 10:31:00,66.6,52.3,30.09,NNE,30,8.0,15.0,60,0.00,,---,0.00,VWS V14.01,2013-05-05 15:31:00,
2013-05-05 10:36:00,66.9,51.2,30.09,NNW,339,6.0,15.0,57,0.00,,---,0.00,VWS V14.01,2013-05-05 15:36:00,
2013-05-05 10:41:00,66.8,51.6,30.09,NNE,32,5.0,15.0,58,0.00,,---,0.00,VWS V14.01,2013-05-05 15:41:00,
2013-05-05 10:46:00,66.9,49.7,30.09,NNE,29,6.0,15.0,54,0.00,,---,0.00,VWS V14.01,2013-05-05 15:46:00,
2013-05-05 10:51:00,66.9,49.2,30.09,NNE,25,12.0,15.0,53,0.00,,---,0.00,VWS V14.01,2013-05-05 15:51:00,
2013-05-05 10:56:00,66.9,50.7,30.09,NW,316,7.0,15.0,56,0.00,,---,0.00,VWS V14.01,2013-05-05 15:56:00,
2013-05-05 11:01:00,67.3,48.6,30.09,NNE,20,8.0,12.0,51,0.00,,---,0.00,VWS V14.01,2013-05-05 16:01:00,
2013-05-05 11:06:00,67.3,48.6,30.09,NNE,29,14.0,14.0,51,0.00,,---,0.00,VWS V14.01,2013-05-05 16:06:00,
2013-05-05 11:11:00,67.3,49.1,30.09,North,349,8.0,14.0,52,0.00,,---,0.00,VWS V14.01,2013-05-05 16:11:00,
2013-05-05 11:16:00,67.5,49.3,30.09,NNE,12,6.0,15.0,52,0.00,,---,0.00,VWS V14.01,2013-05-05 16:16:00,
2013-05-05 11:21:00,67.7,47.9,30.10,NNE,17,5.0,15.0,49,0.00,,---,0.00,VWS V14.01,2013-05-05 16:21:00,
2013-05-05 11:26:00,67.7,47.9,30.09,NNW,340,6.0,16.0,49,0.00,,---,0.00,VWS V14.01,2013-05-05 16:26:00,
2013-05-05 11:31:00,67.8,48.0,30.09,North,11,4.0,16.0,49,0.00,,---,0.00,VWS V14.01,2013-05-05 16:31:00,
2013-05-05 11:36:00,67.9,48.1,30.09,NNW,330,7.0,16.0,49,0.00,,---,0.00,VWS V14.01,2013-05-05 16:36:00,
2013-05-05 11:41:00,68.3,48.4,30.09,NNE,25,6.0,16.0,49,0.00,,---,0.00,VWS V14.01,2013-05-05 16:41:00,
2013-05-05 11:46:00,68.3,47.9,30.09,North,6,11.0,16.0,48,0.00,,---,0.00,VWS V14.01,2013-05-05 16:46:00,
2013-05-05 11:51:00,68.6,48.7,30.09,NNE,15,6.0,16.0,49,0.00,,---,0.00,VWS V14.01,2013-05-05 16:51:00,
2013-05-05 11:56:00,69.2,48.7,30.09,North,360,10.0,16.0,48,0.00,,---,0.00,VWS V14.01,2013-05-05 16:56:00,
2013-05-05 12:01:00,69.2,48.1,30.09,NNE,30,7.0,11.0,47,0.00,,---,0.00,VWS V14.01,2013-05-05 17:01:00,
2013-05-05 12:06:00,69.0,48.0,30.09,NNE,32,15.0,15.0,47,0.00,,---,0.00,VWS V14.01,2013-05-05 17:06:00,
2013-05-05 12:11:00,68.8,47.8,30.09,North,7,6.0,17.0,47,0.00,,---,0.00,VWS V14.01,2013-05-05 17:11:00,
2013-05-05 12:16:00,68.7,47.7,30.09,NNE,30,9.0,17.0,47,0.00,,---,0.00,VWS V14.01,2013-05-05 17:16:00,
2013-05-05 12:21:00,68.8,47.2,30.09,NNE,16,10.0,17.0,46,0.00,,---,0.00,VWS V14.01,2013-05-05 17:21:00,
2013-05-05 12:26:00,69.0,48.0,30.09,NE,54,9.0,17.0,47,0.00,,---,0.00,VWS V14.01,2013-05-05 17:26:00,
2013-05-05 12:31:00,69.8,48.7,30.09,North,349,5.0,17.0,47,0.00,,---,0.00,VWS V14.01,2013-05-05 17:31:00,
2013-05-05 12:36:00,69.9,48.2,30.09,NNW,339,7.0,17.0,46,0.00,,---,0.00,VWS V14.01,2013-05-05 17:36:00,
2013-05-05 12:41:00,69.5,47.2,30.09,North,8,9.0,17.0,45,0.00,,---,0.00,VWS V14.01,2013-05-05 17:41:00,
2013-05-05 12:46:00,69.5,49.0,30.09,NE,44,10.0,17.0,48,0.00,,---,0.00,VWS V14.01,2013-05-05 17:46:00,
2013-05-05 12:51:00,69.9,49.3,30.09,NE,36,10.0,17.0,48,0.00,,---,0.00,VWS V14.01,2013-05-05 17:51:00,
2013-05-05 12:56:00,69.8,49.2,30.09,NNW,334,2.0,17.0,48,0.00,,---,0.00,VWS V14.01,2013-05-05 17:56:00,
2013-05-05 13:01:00,70.0,49.4,30.09,NNE,21,9.0,9.0,48,0.00,,---,0.00,VWS V14.01,2013-05-05 18:01:00,
2013-05-05 13:06:00,70.1,49.5,30.08,North,359,10.0,14.0,48,0.00,,---,0.00,VWS V14.01,2013-05-05 18:06:00,
2013-05-05 13:11:00,70.4,49.2,30.08,ENE,62,9.0,14.0,47,0.00,,---,0.00,VWS V14.01,2013-05-05 18:11:00,
2013-05-05 13:16:00,70.6,48.8,30.08,NE,53,9.0,14.0,46,0.00,,---,0.00,VWS V14.01,2013-05-05 18:16:00,
2013-05-05 13:21:00,70.5,48.2,30.07,NE,36,6.0,14.0,45,0.00,,---,0.00,VWS V14.01,2013-05-05 18:21:00,
2013-05-05 13:26:00,70.8,49.0,30.07,ENE,62,8.0,15.0,46,0.00,,---,0.00,VWS V14.01,2013-05-05 18:26:00,
2013-05-05 13:31:00,70.9,49.7,30.07,ENE,65,8.0,15.0,47,0.00,,---,0.00,VWS V14.01,2013-05-05 18:31:00,
2013-05-05 13:36:00,71.2,51.1,30.07,North,356,9.0,15.0,49,0.00,,---,0.00,VWS V14.01,2013-05-05 18:36:00,
2013-05-05 13:41:00,71.3,47.7,30.07,NNE,23,7.0,15.0,43,0.00,,---,0.00,VWS V14.01,2013-05-05 18:41:00,
2013-05-05 13:46:00,71.6,48.6,30.07,NE,44,13.0,15.0,44,0.00,,---,0.00,VWS V14.01,2013-05-05 18:46:00,
2013-05-05 13:51:00,71.9,48.8,30.06,NNE,21,11.0,15.0,44,0.00,,---,0.00,VWS V14.01,2013-05-05 18:51:00,
2013-05-05 13:56:00,72.3,49.2,30.06,NNE,23,8.0,15.0,44,0.00,,---,0.00,VWS V14.01,2013-05-05 18:56:00,
2013-05-05 14:01:00,72.3,48.6,30.06,North,7,8.0,13.0,43,0.00,,---,0.00,VWS V14.01,2013-05-05 19:01:00,
2013-05-05 14:06:00,72.1,50.2,30.05,NNE,19,8.0,15.0,46,0.00,,---,0.00,VWS V14.01,2013-05-05 19:06:00,
2013-05-05 14:11:00,72.4,49.9,30.05,NNE,21,9.0,15.0,45,0.00,,---,0.00,VWS V14.01,2013-05-05 19:11:00,
2013-05-05 14:16:00,72.3,49.2,30.05,NNE,33,3.0,15.0,44,0.00,,---,0.00,VWS V14.01,2013-05-05 19:16:00,
2013-05-05 14:21:00,72.9,49.7,30.05,NW,309,7.0,15.0,44,0.00,,---,0.00,VWS V14.01,2013-05-05 19:21:00,
2013-05-05 14:26:00,73.0,49.2,30.05,NW,314,9.0,15.0,43,0.00,,---,0.00,VWS V14.01,2013-05-05 19:26:00,
2013-05-05 14:31:00,73.3,48.8,30.05,NNE,32,6.0,15.0,42,0.00,,---,0.00,VWS V14.01,2013-05-05 19:31:00,
2013-05-05 14:36:00,73.6,48.5,30.05,WNW,291,5.0,15.0,41,0.00,,---,0.00,VWS V14.01,2013-05-05 19:36:00,
2013-05-05 14:41:00,73.8,49.9,30.05,NNE,32,9.0,15.0,43,0.00,,---,0.00,VWS V14.01,2013-05-05 19:41:00,
2013-05-05 14:45:00,73.7,47.9,30.05,NW,312,7.0,15.0,40,0.00,,---,0.00,VWS V14.01,2013-05-05 19:45:00,
2013-05-05 14:51:00,74.3,47.1,30.04,NNW,347,7.0,15.0,38,0.00,,---,0.00,VWS V14.01,2013-05-05 19:51:00,
2013-05-05 14:55:00,74.5,47.2,30.04,NW,311,9.0,15.0,38,0.00,,---,0.00,VWS V14.01,2013-05-05 19:55:00,
2013-05-05 15:00:00,74.8,45.3,30.04,North,353,4.0,10.0,35,0.00,,---,0.00,VWS V14.01,2013-05-05 20:00:00,
2013-05-05 15:05:00,74.9,46.2,30.03,NNE,17,3.0,11.0,36,0.00,,---,0.00,VWS V14.01,2013-05-05 20:05:00,
2013-05-05 15:10:00,75.4,46.6,30.03,NNW,343,4.0,11.0,36,0.00,,---,0.00,VWS V14.01,2013-05-05 20:10:00,
2013-05-05 15:15:00,76.0,47.2,30.03,NNW,337,7.0,11.0,36,0.00,,---,0.00,VWS V14.01,2013-05-05 20:15:00,
2013-05-05 15:20:00,75.9,47.1,30.03,NW,317,7.0,11.0,36,0.00,,---,0.00,VWS V14.01,2013-05-05 20:20:00,
2013-05-05 15:25:00,76.0,46.4,30.03,NW,325,5.0,11.0,35,0.00,,---,0.00,VWS V14.01,2013-05-05 20:25:00,
2013-05-05 15:30:00,76.1,46.5,30.03,NNE,14,4.0,12.0,35,0.00,,---,0.00,VWS V14.01,2013-05-05 20:30:00,
2013-05-05 15:35:00,76.6,43.7,30.02,NNW,341,3.0,12.0,31,0.00,,---,0.00,VWS V14.01,2013-05-05 20:35:00,
2013-05-05 15:40:00,77.3,46.0,30.02,NW,308,4.0,12.0,33,0.00,,---,0.00,VWS V14.01,2013-05-05 20:40:00,
2013-05-05 15:45:00,77.3,44.3,30.02,NW,325,2.0,12.0,31,0.00,,---,0.00,VWS V14.01,2013-05-05 20:45:00,
2013-05-05 15:50:00,77.2,45.1,30.02,NNE,21,7.0,12.0,32,0.00,,---,0.00,VWS V14.01,2013-05-05 20:50:00,
2013-05-05 15:55:00,77.0,45.7,30.01,NNE,25,7.0,12.0,33,0.00,,---,0.00,VWS V14.01,2013-05-05 20:55:00,
2013-05-05 16:00:00,76.5,44.5,30.01,NNE,32,10.0,10.0,32,0.00,,---,0.00,VWS V14.01,2013-05-05 21:00:00,
2013-05-05 16:05:00,77.2,45.9,30.01,NW,322,8.0,11.0,33,0.00,,---,0.00,VWS V14.01,2013-05-05 21:05:00,
2013-05-05 16:10:00,77.5,46.2,30.01,WNW,287,3.0,12.0,33,0.00,,---,0.00,VWS V14.01,2013-05-05 21:10:00,
2013-05-05 16:15:00,77.5,44.5,30.00,NNW,337,4.0,12.0,31,0.00,,---,0.00,VWS V14.01,2013-05-05 21:15:00,
2013-05-05 16:20:00,77.9,44.9,30.00,WNW,296,10.0,12.0,31,0.00,,---,0.00,VWS V14.01,2013-05-05 21:20:00,
2013-05-05 16:25:00,77.9,44.0,30.00,WNW,300,4.0,15.0,30,0.00,,---,0.00,VWS V14.01,2013-05-05 21:25:00,
2013-05-05 16:30:00,78.1,44.2,30.00,NNW,328,4.0,15.0,30,0.00,,---,0.00,VWS V14.01,2013-05-05 21:30:00,
2013-05-05 16:35:00,77.8,44.8,30.00,NNW,337,4.0,15.0,31,0.00,,---,0.00,VWS V14.01,2013-05-05 21:35:00,
2013-05-05 16:40:00,78.1,43.3,30.00,NW,325,6.0,15.0,29,0.00,,---,0.00,VWS V14.01,2013-05-05 21:40:00,
2013-05-05 16:45:00,78.1,42.4,30.00,North,358,1.0,15.0,28,0.00,,---,0.00,VWS V14.01,2013-05-05 21:45:00,
2013-05-05 16:50:00,78.4,41.7,30.00,NNW,328,8.0,15.0,27,0.00,,---,0.00,VWS V14.01,2013-05-05 21:50:00,
2013-05-05 16:55:00,78.6,44.6,29.99,North,359,5.0,15.0,30,0.00,,---,0.00,VWS V14.01,2013-05-05 21:55:00,
2013-05-05 17:00:00,78.5,42.7,29.99,NW,308,8.0,9.0,28,0.00,,---,0.00,VWS V14.01,2013-05-05 22:00:00,
2013-05-05 17:05:00,78.3,43.5,29.99,NW,313,9.0,10.0,29,0.00,,---,0.00,VWS V14.01,2013-05-05 22:05:00,
2013-05-05 17:10:00,78.5,45.4,29.99,NW,325,4.0,10.0,31,0.00,,---,0.00,VWS V14.01,2013-05-05 22:10:00,
2013-05-05 17:15:00,78.2,45.1,29.99,NNW,338,2.0,11.0,31,0.00,,---,0.00,VWS V14.01,2013-05-05 22:15:00,
2013-05-05 17:20:00,77.5,48.5,29.99,ENE,68,11.0,14.0,36,0.00,,---,0.00,VWS V14.01,2013-05-05 22:20:00,
2013-05-05 17:25:00,76.9,47.9,29.99,NE,35,10.0,14.0,36,0.00,,---,0.00,VWS V14.01,2013-05-05 22:25:00,
2013-05-05 17:30:00,76.6,48.4,29.99,NNE,14,5.0,14.0,37,0.00,,---,0.00,VWS V14.01,2013-05-05 22:30:00,
2013-05-05 17:35:00,77.2,48.2,30.00,NNW,343,4.0,14.0,36,0.00,,---,0.00,VWS V14.01,2013-05-05 22:35:00,
2013-05-05 17:40:00,76.8,49.3,30.00,NNE,25,6.0,14.0,38,0.00,,---,0.00,VWS V14.01,2013-05-05 22:40:00,
2013-05-05 17:45:00,76.3,50.2,30.00,NNE,19,5.0,14.0,40,0.00,,---,0.00,VWS V14.01,2013-05-05 22:45:00,
2013-05-05 17:50:00,76.0,51.3,30.00,NE,56,9.0,14.0,42,0.00,,---,0.00,VWS V14.01,2013-05-05 22:50:00,
2013-05-05 17:55:00,75.7,49.7,30.00,NE,34,6.0,14.0,40,0.00,,---,0.00,VWS V14.01,2013-05-05 22:55:00,
2013-05-05 18:00:00,75.9,51.2,30.00,NNE,33,4.0,5.0,42,0.00,,---,0.00,VWS V14.01,2013-05-05 23:00:00,
2013-05-05 18:05:00,76.1,51.4,30.00,WNW,302,4.0,10.0,42,0.00,,---,0.00,VWS V14.01,2013-05-05 23:05:00,
2013-05-05 18:10:00,76.2,51.5,30.00,NNW,339,3.0,10.0,42,0.00,,---,0.00,VWS V14.01,2013-05-05 23:10:00,
2013-05-05 18:15:00,76.1,50.7,30.00,NNW,333,6.0,12.0,41,0.00,,---,0.00,VWS V14.01,2013-05-05 23:15:00,
2013-05-05 18:20:00,76.1,50.7,30.00,NNW,337,7.0,12.0,41,0.00,,---,0.00,VWS V14.01,2013-05-05 23:20:00,
2013-05-05 18:25:00,75.9,50.5,30.00,NNW,345,4.0,12.0,41,0.00,,---,0.00,VWS V14.01,2013-05-05 23:25:00,
2013-05-05 18:30:00,75.9,52.5,30.00,NNE,27,3.0,12.0,44,0.00,,---,0.00,VWS V14.01,2013-05-05 23:30:00,
2013-05-05 18:35:00,75.9,52.5,30.00,NNE,18,7.0,12.0,44,0.00,,---,0.00,VWS V14.01,2013-05-05 23:35:00,
2013-05-05 18:40:00,75.6,52.2,30.00,NNE,23,7.0,12.0,44,0.00,,---,0.00,VWS V14.01,2013-05-05 23:40:00,
2013-05-05 18:45:00,75.4,53.8,30.00,NE,40,6.0,12.0,47,0.00,,---,0.00,VWS V14.01,2013-05-05 23:45:00,
2013-05-05 18:50:00,75.2,53.6,30.00,NNE,32,4.0,12.0,47,0.00,,---,0.00,VWS V14.01,2013-05-05 23:50:00,
2013-05-05 18:55:00,75.1,53.5,30.00,North,351,3.0,12.0,47,0.00,,---,0.00,VWS V14.01,2013-05-05 23:55:00,
2013-05-05 19:00:00,74.9,53.9,30.00,NNE,13,4.0,6.0,48,0.00,,---,0.00,VWS V14.01,2013-05-06 00:00:00,
2013-05-05 19:05:00,74.7,53.7,30.00,NE,43,3.0,10.0,48,0.00,,---,0.00,VWS V14.01,2013-05-06 00:05:00,
2013-05-05 19:10:00,74.5,53.5,30.00,NNE,27,7.0,10.0,48,0.00,,---,0.00,VWS V14.01,2013-05-06 00:10:00,
2013-05-05 19:15:00,74.2,54.4,30.01,North,4,1.0,11.0,50,0.00,,---,0.00,VWS V14.01,2013-05-06 00:15:00,
2013-05-05 19:20:00,74.1,54.8,30.01,NNE,29,4.0,11.0,51,0.00,,---,0.00,VWS V14.01,2013-05-06 00:20:00,
2013-05-05 19:25:00,73.9,55.2,30.01,NNE,23,3.0,11.0,52,0.00,,---,0.00,VWS V14.01,2013-05-06 00:25:00,
2013-05-05 19:30:00,73.7,55.0,30.01,NNE,19,3.0,11.0,52,0.00,,---,0.00,VWS V14.01,2013-05-06 00:30:00,
2013-05-05 19:35:00,73.4,55.2,30.01,NNE,29,3.0,11.0,53,0.00,,---,0.00,VWS V14.01,2013-05-06 00:35:00,
2013-05-05 19:40:00,73.1,56.0,30.01,NNE,23,2.0,11.0,55,0.00,,---,0.00,VWS V14.01,2013-05-06 00:40:00,
2013-05-05 19:45:00,72.7,57.1,30.01,NNW,342,1.0,11.0,58,0.00,,---,0.00,VWS V14.01,2013-05-06 00:45:00,
2013-05-05 19:50:00,72.2,56.6,30.01,NNE,33,5.0,11.0,58,0.00,,---,0.00,VWS V14.01,2013-05-06 00:50:00,
2013-05-05 19:55:00,71.8,56.2,30.01,North,9,1.0,11.0,58,0.00,,---,0.00,VWS V14.01,2013-05-06 00:55:00,
2013-05-05 20:00:00,71.4,56.3,30.01,NNW,333,3.0,4.0,59,0.00,,---,0.00,VWS V14.01,2013-05-06 01:00:00,
2013-05-05 20:05:00,70.9,54.9,30.02,North,9,3.0,6.0,57,0.00,,---,0.00,VWS V14.01,2013-05-06 01:05:00,
2013-05-05 20:10:00,70.6,55.1,30.02,NNE,17,2.0,6.0,58,0.00,,---,0.00,VWS V14.01,2013-05-06 01:10:00,
2013-05-05 20:15:00,70.4,55.9,30.02,NNE,32,3.0,6.0,60,0.00,,---,0.00,VWS V14.01,2013-05-06 01:15:00,
2013-05-05 20:20:00,70.1,56.5,30.02,NNE,19,5.0,6.0,62,0.00,,---,0.00,VWS V14.01,2013-05-06 01:20:00,
2013-05-05 20:25:00,69.8,56.2,30.02,NNE,27,3.0,6.0,62,0.00,,---,0.00,VWS V14.01,2013-05-06 01:25:00,
2013-05-05 20:30:00,69.6,55.6,30.02,NNW,347,2.0,6.0,61,0.00,,---,0.00,VWS V14.01,2013-05-06 01:30:00,
2013-05-05 20:35:00,69.5,55.9,30.03,NNE,33,3.0,6.0,62,0.00,,---,0.00,VWS V14.01,2013-05-06 01:35:00,
2013-05-05 20:40:00,69.3,56.2,30.03,NNE,13,2.0,6.0,63,0.00,,---,0.00,VWS V14.01,2013-05-06 01:40:00,
2013-05-05 20:45:00,69.2,57.4,30.03,NE,36,2.0,6.0,66,0.00,,---,0.00,VWS V14.01,2013-05-06 01:45:00,
2013-05-05 20:50:00,69.0,57.6,30.03,NNE,32,2.0,6.0,67,0.00,,---,0.00,VWS V14.01,2013-05-06 01:50:00,
2013-05-05 20:55:00,68.9,57.5,30.04,NE,56,2.0,6.0,67,0.00,,---,0.00,VWS V14.01,2013-05-06 01:55:00,
2013-05-05 21:00:00,68.8,56.6,30.04,NE,43,4.0,6.0,65,0.00,,---,0.00,VWS V14.01,2013-05-06 02:00:00,
2013-05-05 21:05:00,68.8,55.3,30.04,NNE,18,4.0,7.0,62,0.00,,---,0.00,VWS V14.01,2013-05-06 02:05:00,
2013-05-05 21:10:00,68.8,54.8,30.04,NE,44,3.0,7.0,61,0.00,,---,0.00,VWS V14.01,2013-05-06 02:10:00,
2013-05-05 21:15:00,68.6,55.1,30.04,NNE,33,3.0,7.0,62,0.00,,---,0.00,VWS V14.01,2013-05-06 02:15:00,
2013-05-05 21:20:00,68.6,55.1,30.04,NE,40,4.0,7.0,62,0.00,,---,0.00,VWS V14.01,2013-05-06 02:20:00,
2013-05-05 21:25:00,68.5,55.4,30.04,NE,41,4.0,7.0,63,0.00,,---,0.00,VWS V14.01,2013-05-06 02:25:00,
2013-05-05 21:30:00,68.4,55.8,30.04,NE,43,5.0,7.0,64,0.00,,---,0.00,VWS V14.01,2013-05-06 02:30:00,
2013-05-05 21:35:00,68.4,54.9,30.04,NNE,32,4.0,7.0,62,0.00,,---,0.00,VWS V14.01,2013-05-06 02:35:00,
2013-05-05 21:40:00,68.4,54.0,30.05,NE,49,2.0,7.0,60,0.00,,---,0.00,VWS V14.01,2013-05-06 02:40:00,
2013-05-05 21:45:00,68.5,54.5,30.05,NNE,33,5.0,7.0,61,0.00,,---,0.00,VWS V14.01,2013-05-06 02:45:00,
2013-05-05 21:50:00,68.4,54.9,30.05,NE,43,4.0,7.0,62,0.00,,---,0.00,VWS V14.01,2013-05-06 02:50:00,
2013-05-05 21:55:00,68.3,54.8,30.05,NE,44,3.0,7.0,62,0.00,,---,0.00,VWS V14.01,2013-05-06 02:55:00,
2013-05-05 22:00:00,68.2,55.1,30.06,NE,47,6.0,6.0,63,0.00,,---,0.00,VWS V14.01,2013-05-06 03:00:00,
2013-05-05 22:05:00,68.1,55.5,30.06,NE,44,4.0,6.0,64,0.00,,---,0.00,VWS V14.01,2013-05-06 03:05:00,
2013-05-05 22:10:00,68.1,55.5,30.06,NNE,30,3.0,7.0,64,0.00,,---,0.00,VWS V14.01,2013-05-06 03:10:00,
2013-05-05 22:15:00,68.0,54.5,30.06,NE,56,5.0,8.0,62,0.00,,---,0.00,VWS V14.01,2013-05-06 03:15:00,
2013-05-05 22:20:00,68.0,53.6,30.06,NE,51,7.0,8.0,60,0.00,,---,0.00,VWS V14.01,2013-05-06 03:20:00,
2013-05-05 22:25:00,67.9,53.5,30.06,NE,53,6.0,8.0,60,0.00,,---,0.00,VWS V14.01,2013-05-06 03:25:00,
2013-05-05 22:30:00,67.8,53.9,30.06,NE,49,6.0,8.0,61,0.00,,---,0.00,VWS V14.01,2013-05-06 03:30:00,
2013-05-05 22:35:00,67.7,54.2,30.07,NE,45,7.0,8.0,62,0.00,,---,0.00,VWS V14.01,2013-05-06 03:35:00,
2013-05-05 22:40:00,67.6,53.7,30.07,NE,54,5.0,8.0,61,0.00,,---,0.00,VWS V14.01,2013-05-06 03:40:00,
2013-05-05 22:45:00,67.6,52.8,30.07,ENE,62,6.0,9.0,59,0.00,,---,0.00,VWS V14.01,2013-05-06 03:45:00,
2013-05-05 22:50:00,67.6,52.8,30.07,NE,40,4.0,9.0,59,0.00,,---,0.00,VWS V14.01,2013-05-06 03:50:00,
2013-05-05 22:55:00,67.5,53.1,30.07,NE,41,4.0,9.0,60,0.00,,---,0.00,VWS V14.01,2013-05-06 03:55:00,
2013-05-05 23:00:00,67.5,53.1,30.07,NE,46,5.0,9.0,60,0.00,,---,0.00,VWS V14.01,2013-05-06 04:00:00,
2013-05-05 23:01:00,67.5,53.1,30.07,NE,47,4.0,6.0,60,0.00,,---,0.00,VWS V14.01,2013-05-06 04:01:00,
2013-05-05 23:06:00,67.3,53.8,30.07,ENE,57,3.0,6.0,62,0.00,,---,0.00,VWS V14.01,2013-05-06 04:06:00,
2013-05-05 23:11:00,67.2,54.2,30.08,ENE,58,4.0,6.0,63,0.00,,---,0.00,VWS V14.01,2013-05-06 04:11:00,
2013-05-05 23:16:00,67.1,54.1,30.08,ENE,61,6.0,7.0,63,0.00,,---,0.00,VWS V14.01,2013-05-06 04:16:00,
2013-05-05 23:21:00,66.9,54.3,30.08,East,86,5.0,7.0,64,0.00,,---,0.00,VWS V14.01,2013-05-06 04:21:00,
2013-05-05 23:26:00,66.7,54.2,30.08,NE,53,4.0,7.0,64,0.00,,---,0.00,VWS V14.01,2013-05-06 04:26:00,
2013-05-05 23:31:00,66.6,54.1,30.08,ENE,64,5.0,7.0,64,0.00,,---,0.00,VWS V14.01,2013-05-06 04:31:00,
2013-05-05 23:36:00,66.5,53.5,30.08,ENE,61,4.0,8.0,63,0.00,,---,0.00,VWS V14.01,2013-05-06 04:36:00,
2013-05-05 23:41:00,66.6,53.6,30.08,NE,54,5.0,8.0,63,0.00,,---,0.00,VWS V14.01,2013-05-06 04:41:00,
2013-05-05 23:46:00,66.5,53.5,30.08,ENE,60,3.0,8.0,63,0.00,,---,0.00,VWS V14.01,2013-05-06 04:46:00,
2013-05-05 23:51:00,66.5,53.5,30.08,ENE,62,4.0,8.0,63,0.00,,---,0.00,VWS V14.01,2013-05-06 04:51:00,
2013-05-05 23:56:00,66.4,53.9,30.08,ENE,65,4.0,8.0,64,0.00,,---,0.00,VWS V14.01,2013-05-06 04:56:00,